sensor_id;sensor_type;location;lat;lon;timestamp;P1;durP1;ratioP1;P2;durP2;ratioP2
6342;SDS011;3204;42.698;23.298;2022-11-14T00:00:08;127.57;;;67.90;;
6342;SDS011;3204;42.698;23.298;2022-11-14T00:02:36;130.73;;;67.83;;
6342;SDS011;3204;42.698;23.298;2022-11-14T00:05:02;130.60;;;68.47;;
6342;SDS011;3204;42.698;23.298;2022-11-14T00:07:29;145.93;;;71.13;;
6342;SDS011;3204;42.698;23.298;2022-11-14T00:09:55;137.33;;;70.23;;
6342;SDS011;3204;42.698;23.298;2022-11-14T00:12:21;139.00;;;70.37;;
6342;SDS011;3204;42.698;23.298;2022-11-14T00:14:47;141.97;;;69.40;;
6342;SDS011;3204;42.698;23.298;2022-11-14T00:17:12;131.90;;;70.83;;
6342;SDS011;3204;42.698;23.298;2022-11-14T00:19:38;135.13;;;66.57;;
6342;SDS011;3204;42.698;23.298;2022-11-14T00:22:03;128.27;;;64.13;;
6342;SDS011;3204;42.698;23.298;2022-11-14T00:24:29;127.50;;;63.60;;
6342;SDS011;3204;42.698;23.298;2022-11-14T00:26:55;124.90;;;61.53;;
6342;SDS011;3204;42.698;23.298;2022-11-14T00:29:20;109.47;;;56.80;;
6342;SDS011;3204;42.698;23.298;2022-11-14T00:31:46;109.57;;;55.63;;
6342;SDS011;3204;42.698;23.298;2022-11-14T00:34:11;117.47;;;60.73;;
6342;SDS011;3204;42.698;23.298;2022-11-14T00:36:37;118.13;;;57.37;;
6342;SDS011;3204;42.698;23.298;2022-11-14T00:39:03;114.23;;;56.93;;
6342;SDS011;3204;42.698;23.298;2022-11-14T00:41:29;122.47;;;60.13;;
6342;SDS011;3204;42.698;23.298;2022-11-14T00:43:54;122.07;;;60.53;;
6342;SDS011;3204;42.698;23.298;2022-11-14T00:46:20;133.97;;;66.87;;
6342;SDS011;3204;42.698;23.298;2022-11-14T00:48:45;127.40;;;63.67;;
6342;SDS011;3204;42.698;23.298;2022-11-14T00:51:11;120.63;;;62.53;;
6342;SDS011;3204;42.698;23.298;2022-11-14T00:53:37;119.43;;;57.57;;
6342;SDS011;3204;42.698;23.298;2022-11-14T00:56:03;116.03;;;58.40;;
6342;SDS011;3204;42.698;23.298;2022-11-14T00:58:29;120.70;;;58.67;;
6342;SDS011;3204;42.698;23.298;2022-11-14T01:00:54;111.80;;;56.43;;
6342;SDS011;3204;42.698;23.298;2022-11-14T01:03:20;114.43;;;58.33;;
6342;SDS011;3204;42.698;23.298;2022-11-14T01:05:46;110.73;;;55.07;;
6342;SDS011;3204;42.698;23.298;2022-11-14T01:08:13;135.00;;;64.80;;
6342;SDS011;3204;42.698;23.298;2022-11-14T01:10:41;127.70;;;59.00;;
6342;SDS011;3204;42.698;23.298;2022-11-14T01:13:08;107.63;;;52.63;;
6342;SDS011;3204;42.698;23.298;2022-11-14T01:15:44;93.87;;;48.10;;
6342;SDS011;3204;42.698;23.298;2022-11-14T01:18:12;99.47;;;48.50;;
6342;SDS011;3204;42.698;23.298;2022-11-14T01:20:40;94.20;;;46.23;;
6342;SDS011;3204;42.698;23.298;2022-11-14T01:23:08;86.13;;;45.50;;
6342;SDS011;3204;42.698;23.298;2022-11-14T01:25:35;91.23;;;46.13;;
6342;SDS011;3204;42.698;23.298;2022-11-14T01:28:04;91.13;;;45.63;;
6342;SDS011;3204;42.698;23.298;2022-11-14T01:30:30;81.27;;;43.27;;
6342;SDS011;3204;42.698;23.298;2022-11-14T01:32:56;88.53;;;44.30;;
6342;SDS011;3204;42.698;23.298;2022-11-14T01:35:22;81.13;;;42.10;;
6342;SDS011;3204;42.698;23.298;2022-11-14T01:37:47;84.13;;;42.57;;
6342;SDS011;3204;42.698;23.298;2022-11-14T01:40:13;79.33;;;42.57;;
6342;SDS011;3204;42.698;23.298;2022-11-14T01:42:38;84.70;;;42.30;;
6342;SDS011;3204;42.698;23.298;2022-11-14T01:48:09;83.67;;;43.43;;
6342;SDS011;3204;42.698;23.298;2022-11-14T01:51:08;86.37;;;44.33;;
6342;SDS011;3204;42.698;23.298;2022-11-14T01:53:40;83.57;;;41.83;;
6342;SDS011;3204;42.698;23.298;2022-11-14T01:56:07;84.57;;;43.87;;
6342;SDS011;3204;42.698;23.298;2022-11-14T01:58:36;81.70;;;44.03;;
6342;SDS011;3204;42.698;23.298;2022-11-14T02:01:06;89.73;;;44.40;;
6342;SDS011;3204;42.698;23.298;2022-11-14T02:03:32;93.30;;;45.73;;
6342;SDS011;3204;42.698;23.298;2022-11-14T02:06:02;91.43;;;44.60;;
6342;SDS011;3204;42.698;23.298;2022-11-14T02:08:30;95.33;;;46.33;;
6342;SDS011;3204;42.698;23.298;2022-11-14T02:10:57;92.03;;;45.50;;
6342;SDS011;3204;42.698;23.298;2022-11-14T02:13:22;97.10;;;46.87;;
6342;SDS011;3204;42.698;23.298;2022-11-14T02:15:47;91.17;;;43.40;;
6342;SDS011;3204;42.698;23.298;2022-11-14T02:18:14;85.03;;;43.03;;
6342;SDS011;3204;42.698;23.298;2022-11-14T02:20:39;89.27;;;44.40;;
6342;SDS011;3204;42.698;23.298;2022-11-14T02:23:08;80.30;;;41.47;;
6342;SDS011;3204;42.698;23.298;2022-11-14T02:25:34;84.23;;;42.43;;
6342;SDS011;3204;42.698;23.298;2022-11-14T02:28:00;85.03;;;41.97;;
6342;SDS011;3204;42.698;23.298;2022-11-14T02:30:26;81.27;;;42.50;;
6342;SDS011;3204;42.698;23.298;2022-11-14T02:32:52;84.60;;;40.80;;
6342;SDS011;3204;42.698;23.298;2022-11-14T02:35:18;85.63;;;41.57;;
6342;SDS011;3204;42.698;23.298;2022-11-14T02:37:43;84.23;;;43.23;;
6342;SDS011;3204;42.698;23.298;2022-11-14T02:40:09;89.33;;;42.97;;
6342;SDS011;3204;42.698;23.298;2022-11-14T02:42:35;82.93;;;41.60;;
6342;SDS011;3204;42.698;23.298;2022-11-14T02:45:01;80.23;;;42.13;;
6342;SDS011;3204;42.698;23.298;2022-11-14T02:47:26;86.20;;;43.60;;
6342;SDS011;3204;42.698;23.298;2022-11-14T02:49:51;82.53;;;41.60;;
6342;SDS011;3204;42.698;23.298;2022-11-14T02:52:17;83.33;;;42.83;;
6342;SDS011;3204;42.698;23.298;2022-11-14T02:54:43;83.83;;;40.87;;
6342;SDS011;3204;42.698;23.298;2022-11-14T02:57:08;79.57;;;40.27;;
6342;SDS011;3204;42.698;23.298;2022-11-14T02:59:34;83.20;;;41.27;;
6342;SDS011;3204;42.698;23.298;2022-11-14T03:01:59;79.73;;;38.83;;
6342;SDS011;3204;42.698;23.298;2022-11-14T03:04:25;76.57;;;38.27;;
6342;SDS011;3204;42.698;23.298;2022-11-14T03:06:50;77.20;;;38.57;;
6342;SDS011;3204;42.698;23.298;2022-11-14T03:09:16;68.87;;;36.07;;
6342;SDS011;3204;42.698;23.298;2022-11-14T03:11:42;66.53;;;34.77;;
6342;SDS011;3204;42.698;23.298;2022-11-14T03:14:07;60.30;;;32.73;;
6342;SDS011;3204;42.698;23.298;2022-11-14T03:16:33;61.50;;;32.93;;
6342;SDS011;3204;42.698;23.298;2022-11-14T03:18:59;57.27;;;31.27;;
6342;SDS011;3204;42.698;23.298;2022-11-14T03:21:24;61.40;;;31.23;;
6342;SDS011;3204;42.698;23.298;2022-11-14T03:23:50;62.20;;;32.20;;
6342;SDS011;3204;42.698;23.298;2022-11-14T03:26:15;60.10;;;32.23;;
6342;SDS011;3204;42.698;23.298;2022-11-14T03:28:41;58.97;;;30.90;;
6342;SDS011;3204;42.698;23.298;2022-11-14T03:31:08;57.10;;;31.80;;
6342;SDS011;3204;42.698;23.298;2022-11-14T03:33:35;62.17;;;31.83;;
6342;SDS011;3204;42.698;23.298;2022-11-14T03:36:00;57.63;;;31.53;;
6342;SDS011;3204;42.698;23.298;2022-11-14T03:38:26;61.13;;;32.50;;
6342;SDS011;3204;42.698;23.298;2022-11-14T03:40:52;61.10;;;31.87;;
6342;SDS011;3204;42.698;23.298;2022-11-14T03:43:18;63.00;;;31.17;;
6342;SDS011;3204;42.698;23.298;2022-11-14T03:45:44;59.23;;;30.80;;
6342;SDS011;3204;42.698;23.298;2022-11-14T03:48:10;61.43;;;31.53;;
6342;SDS011;3204;42.698;23.298;2022-11-14T03:50:36;59.30;;;32.00;;
6342;SDS011;3204;42.698;23.298;2022-11-14T03:53:02;65.67;;;31.73;;
6342;SDS011;3204;42.698;23.298;2022-11-14T03:55:27;67.47;;;32.87;;
6342;SDS011;3204;42.698;23.298;2022-11-14T03:57:53;66.77;;;29.93;;
6342;SDS011;3204;42.698;23.298;2022-11-14T04:00:19;60.67;;;30.43;;
6342;SDS011;3204;42.698;23.298;2022-11-14T04:02:45;60.80;;;32.27;;
6342;SDS011;3204;42.698;23.298;2022-11-14T04:05:11;60.43;;;31.10;;
6342;SDS011;3204;42.698;23.298;2022-11-14T04:07:37;62.53;;;31.60;;
6342;SDS011;3204;42.698;23.298;2022-11-14T04:10:02;57.10;;;29.93;;
6342;SDS011;3204;42.698;23.298;2022-11-14T04:12:28;64.00;;;31.83;;
6342;SDS011;3204;42.698;23.298;2022-11-14T04:14:54;60.60;;;31.53;;
6342;SDS011;3204;42.698;23.298;2022-11-14T04:17:20;64.70;;;30.50;;
6342;SDS011;3204;42.698;23.298;2022-11-14T04:19:45;64.77;;;32.67;;
6342;SDS011;3204;42.698;23.298;2022-11-14T04:22:11;69.33;;;33.13;;
6342;SDS011;3204;42.698;23.298;2022-11-14T04:24:36;63.57;;;32.63;;
6342;SDS011;3204;42.698;23.298;2022-11-14T04:27:02;66.23;;;32.50;;
6342;SDS011;3204;42.698;23.298;2022-11-14T04:29:27;71.23;;;33.33;;
6342;SDS011;3204;42.698;23.298;2022-11-14T04:31:53;72.43;;;32.40;;
6342;SDS011;3204;42.698;23.298;2022-11-14T04:34:18;61.93;;;31.70;;
6342;SDS011;3204;42.698;23.298;2022-11-14T04:36:44;70.40;;;32.70;;
6342;SDS011;3204;42.698;23.298;2022-11-14T04:39:09;67.33;;;33.53;;
6342;SDS011;3204;42.698;23.298;2022-11-14T04:41:35;77.53;;;34.33;;
6342;SDS011;3204;42.698;23.298;2022-11-14T04:44:00;76.80;;;34.30;;
6342;SDS011;3204;42.698;23.298;2022-11-14T04:46:26;85.20;;;35.17;;
6342;SDS011;3204;42.698;23.298;2022-11-14T04:48:51;73.90;;;34.43;;
6342;SDS011;3204;42.698;23.298;2022-11-14T04:51:17;81.37;;;36.07;;
6342;SDS011;3204;42.698;23.298;2022-11-14T04:53:43;84.93;;;36.13;;
6342;SDS011;3204;42.698;23.298;2022-11-14T04:56:08;75.07;;;37.23;;
6342;SDS011;3204;42.698;23.298;2022-11-14T04:58:34;82.00;;;37.57;;
6342;SDS011;3204;42.698;23.298;2022-11-14T05:01:05;85.87;;;36.83;;
6342;SDS011;3204;42.698;23.298;2022-11-14T05:03:31;83.07;;;37.77;;
6342;SDS011;3204;42.698;23.298;2022-11-14T05:06:00;86.63;;;38.23;;
6342;SDS011;3204;42.698;23.298;2022-11-14T05:08:26;80.00;;;37.37;;
6342;SDS011;3204;42.698;23.298;2022-11-14T05:10:52;89.33;;;39.20;;
6342;SDS011;3204;42.698;23.298;2022-11-14T05:13:17;87.80;;;38.20;;
6342;SDS011;3204;42.698;23.298;2022-11-14T05:15:43;90.80;;;38.50;;
6342;SDS011;3204;42.698;23.298;2022-11-14T05:18:08;91.73;;;39.17;;
6342;SDS011;3204;42.698;23.298;2022-11-14T05:20:33;102.97;;;38.63;;
6342;SDS011;3204;42.698;23.298;2022-11-14T05:22:59;93.37;;;39.47;;
6342;SDS011;3204;42.698;23.298;2022-11-14T05:25:25;102.07;;;39.00;;
6342;SDS011;3204;42.698;23.298;2022-11-14T05:27:51;92.13;;;38.50;;
6342;SDS011;3204;42.698;23.298;2022-11-14T05:30:16;124.93;;;40.17;;
6342;SDS011;3204;42.698;23.298;2022-11-14T05:32:42;102.90;;;40.10;;
6342;SDS011;3204;42.698;23.298;2022-11-14T05:35:07;107.53;;;40.93;;
6342;SDS011;3204;42.698;23.298;2022-11-14T05:37:33;104.57;;;39.53;;
6342;SDS011;3204;42.698;23.298;2022-11-14T05:39:59;107.00;;;40.13;;
6342;SDS011;3204;42.698;23.298;2022-11-14T05:42:26;106.87;;;40.53;;
6342;SDS011;3204;42.698;23.298;2022-11-14T05:44:52;125.00;;;42.47;;
6342;SDS011;3204;42.698;23.298;2022-11-14T05:47:18;106.53;;;40.93;;
6342;SDS011;3204;42.698;23.298;2022-11-14T05:49:43;113.10;;;43.37;;
6342;SDS011;3204;42.698;23.298;2022-11-14T05:52:09;126.33;;;44.80;;
6342;SDS011;3204;42.698;23.298;2022-11-14T05:54:34;125.03;;;42.83;;
6342;SDS011;3204;42.698;23.298;2022-11-14T05:57:00;117.17;;;43.87;;
6342;SDS011;3204;42.698;23.298;2022-11-14T05:59:26;112.37;;;44.23;;
6342;SDS011;3204;42.698;23.298;2022-11-14T06:01:51;111.83;;;44.00;;
6342;SDS011;3204;42.698;23.298;2022-11-14T06:04:17;120.10;;;45.60;;
6342;SDS011;3204;42.698;23.298;2022-11-14T06:06:42;107.10;;;43.27;;
6342;SDS011;3204;42.698;23.298;2022-11-14T06:09:08;93.93;;;41.23;;
6342;SDS011;3204;42.698;23.298;2022-11-14T06:11:34;104.93;;;42.17;;
6342;SDS011;3204;42.698;23.298;2022-11-14T06:13:59;109.90;;;42.03;;
6342;SDS011;3204;42.698;23.298;2022-11-14T06:16:25;104.43;;;41.50;;
6342;SDS011;3204;42.698;23.298;2022-11-14T06:18:54;119.93;;;43.07;;
6342;SDS011;3204;42.698;23.298;2022-11-14T06:21:21;103.23;;;41.03;;
6342;SDS011;3204;42.698;23.298;2022-11-14T06:23:48;104.10;;;42.30;;
6342;SDS011;3204;42.698;23.298;2022-11-14T06:28:49;108.10;;;41.20;;
6342;SDS011;3204;42.698;23.298;2022-11-14T06:31:16;105.37;;;41.47;;
6342;SDS011;3204;42.698;23.298;2022-11-14T06:33:42;109.77;;;43.60;;
6342;SDS011;3204;42.698;23.298;2022-11-14T06:36:09;103.53;;;43.63;;
6342;SDS011;3204;42.698;23.298;2022-11-14T06:38:35;111.07;;;42.03;;
6342;SDS011;3204;42.698;23.298;2022-11-14T06:41:09;117.23;;;45.20;;
6342;SDS011;3204;42.698;23.298;2022-11-14T06:43:37;114.40;;;45.00;;
6342;SDS011;3204;42.698;23.298;2022-11-14T06:46:04;109.77;;;42.83;;
6342;SDS011;3204;42.698;23.298;2022-11-14T06:48:31;112.73;;;43.17;;
6342;SDS011;3204;42.698;23.298;2022-11-14T06:50:57;104.87;;;44.47;;
6342;SDS011;3204;42.698;23.298;2022-11-14T06:53:23;97.57;;;41.03;;
6342;SDS011;3204;42.698;23.298;2022-11-14T06:55:56;97.30;;;42.27;;
6342;SDS011;3204;42.698;23.298;2022-11-14T06:58:30;93.67;;;38.80;;
6342;SDS011;3204;42.698;23.298;2022-11-14T07:01:01;87.93;;;39.63;;
6342;SDS011;3204;42.698;23.298;2022-11-14T07:03:31;92.67;;;39.43;;
6342;SDS011;3204;42.698;23.298;2022-11-14T07:05:57;89.23;;;39.43;;
6342;SDS011;3204;42.698;23.298;2022-11-14T07:08:23;84.70;;;38.37;;
6342;SDS011;3204;42.698;23.298;2022-11-14T07:10:49;83.97;;;35.30;;
6342;SDS011;3204;42.698;23.298;2022-11-14T07:13:14;87.33;;;36.37;;
6342;SDS011;3204;42.698;23.298;2022-11-14T07:15:48;82.17;;;37.20;;
6342;SDS011;3204;42.698;23.298;2022-11-14T07:18:14;88.27;;;38.90;;
6342;SDS011;3204;42.698;23.298;2022-11-14T07:20:39;88.87;;;38.90;;
6342;SDS011;3204;42.698;23.298;2022-11-14T07:23:05;83.50;;;37.40;;
6342;SDS011;3204;42.698;23.298;2022-11-14T07:25:30;88.80;;;38.33;;
6342;SDS011;3204;42.698;23.298;2022-11-14T07:27:56;91.17;;;40.17;;
6342;SDS011;3204;42.698;23.298;2022-11-14T07:30:22;96.70;;;40.73;;
6342;SDS011;3204;42.698;23.298;2022-11-14T07:32:53;96.67;;;42.23;;
6342;SDS011;3204;42.698;23.298;2022-11-14T07:35:22;99.97;;;41.83;;
6342;SDS011;3204;42.698;23.298;2022-11-14T07:37:48;101.90;;;43.37;;
6342;SDS011;3204;42.698;23.298;2022-11-14T07:40:14;106.53;;;45.60;;
6342;SDS011;3204;42.698;23.298;2022-11-14T07:42:40;93.33;;;41.97;;
6342;SDS011;3204;42.698;23.298;2022-11-14T07:45:07;89.43;;;42.43;;
6342;SDS011;3204;42.698;23.298;2022-11-14T07:47:33;93.30;;;40.23;;
6342;SDS011;3204;42.698;23.298;2022-11-14T07:49:58;93.77;;;38.90;;
6342;SDS011;3204;42.698;23.298;2022-11-14T07:52:24;91.53;;;41.83;;
6342;SDS011;3204;42.698;23.298;2022-11-14T07:54:49;92.20;;;39.97;;
6342;SDS011;3204;42.698;23.298;2022-11-14T07:57:15;96.07;;;41.37;;
6342;SDS011;3204;42.698;23.298;2022-11-14T07:59:41;101.90;;;43.13;;
6342;SDS011;3204;42.698;23.298;2022-11-14T08:02:10;104.53;;;44.33;;
6342;SDS011;3204;42.698;23.298;2022-11-14T08:04:38;96.17;;;42.50;;
6342;SDS011;3204;42.698;23.298;2022-11-14T08:07:04;101.33;;;43.73;;
6342;SDS011;3204;42.698;23.298;2022-11-14T08:09:29;87.53;;;40.63;;
6342;SDS011;3204;42.698;23.298;2022-11-14T08:11:55;92.70;;;40.83;;
6342;SDS011;3204;42.698;23.298;2022-11-14T08:14:20;98.73;;;42.73;;
6342;SDS011;3204;42.698;23.298;2022-11-14T08:16:46;107.97;;;45.13;;
6342;SDS011;3204;42.698;23.298;2022-11-14T08:19:12;109.20;;;45.03;;
6342;SDS011;3204;42.698;23.298;2022-11-14T08:21:37;110.97;;;45.47;;
6342;SDS011;3204;42.698;23.298;2022-11-14T08:24:03;109.23;;;47.03;;
6342;SDS011;3204;42.698;23.298;2022-11-14T08:26:29;105.53;;;46.60;;
6342;SDS011;3204;42.698;23.298;2022-11-14T08:28:54;93.77;;;42.97;;
6342;SDS011;3204;42.698;23.298;2022-11-14T08:31:20;97.57;;;44.97;;
6342;SDS011;3204;42.698;23.298;2022-11-14T08:33:46;95.53;;;42.57;;
6342;SDS011;3204;42.698;23.298;2022-11-14T08:36:13;94.83;;;43.33;;
6342;SDS011;3204;42.698;23.298;2022-11-14T08:38:39;92.50;;;41.30;;
6342;SDS011;3204;42.698;23.298;2022-11-14T08:41:04;97.03;;;43.87;;
6342;SDS011;3204;42.698;23.298;2022-11-14T08:43:30;94.60;;;43.30;;
6342;SDS011;3204;42.698;23.298;2022-11-14T08:45:59;96.50;;;43.80;;
6342;SDS011;3204;42.698;23.298;2022-11-14T08:48:26;91.47;;;43.33;;
6342;SDS011;3204;42.698;23.298;2022-11-14T08:50:52;76.97;;;39.87;;
6342;SDS011;3204;42.698;23.298;2022-11-14T08:53:18;75.83;;;37.27;;
6342;SDS011;3204;42.698;23.298;2022-11-14T08:55:46;77.30;;;36.47;;
6342;SDS011;3204;42.698;23.298;2022-11-14T08:58:12;67.73;;;37.43;;
6342;SDS011;3204;42.698;23.298;2022-11-14T09:00:38;80.13;;;39.80;;
6342;SDS011;3204;42.698;23.298;2022-11-14T09:03:07;84.40;;;39.67;;
6342;SDS011;3204;42.698;23.298;2022-11-14T09:05:33;70.00;;;36.03;;
6342;SDS011;3204;42.698;23.298;2022-11-14T09:08:00;70.17;;;36.03;;
6342;SDS011;3204;42.698;23.298;2022-11-14T09:10:26;73.87;;;38.10;;
6342;SDS011;3204;42.698;23.298;2022-11-14T09:12:55;70.83;;;36.87;;
6342;SDS011;3204;42.698;23.298;2022-11-14T09:15:21;79.57;;;37.73;;
6342;SDS011;3204;42.698;23.298;2022-11-14T09:17:46;68.37;;;36.87;;
6342;SDS011;3204;42.698;23.298;2022-11-14T09:20:12;71.73;;;37.80;;
6342;SDS011;3204;42.698;23.298;2022-11-14T09:22:38;77.20;;;38.83;;
6342;SDS011;3204;42.698;23.298;2022-11-14T09:25:04;75.23;;;38.10;;
6342;SDS011;3204;42.698;23.298;2022-11-14T09:27:31;78.23;;;41.10;;
6342;SDS011;3204;42.698;23.298;2022-11-14T09:29:56;74.30;;;38.03;;
6342;SDS011;3204;42.698;23.298;2022-11-14T09:32:21;70.20;;;37.40;;
6342;SDS011;3204;42.698;23.298;2022-11-14T09:34:47;81.87;;;40.27;;
6342;SDS011;3204;42.698;23.298;2022-11-14T09:37:13;74.37;;;39.50;;
6342;SDS011;3204;42.698;23.298;2022-11-14T09:39:38;81.17;;;40.87;;
6342;SDS011;3204;42.698;23.298;2022-11-14T09:45:10;88.83;;;40.43;;
6342;SDS011;3204;42.698;23.298;2022-11-14T09:52:39;90.10;;;44.33;;
6342;SDS011;3204;42.698;23.298;2022-11-14T09:57:56;85.97;;;42.83;;
6342;SDS011;3204;42.698;23.298;2022-11-14T10:00:23;99.67;;;45.03;;
6342;SDS011;3204;42.698;23.298;2022-11-14T10:06:01;96.70;;;47.57;;
6342;SDS011;3204;42.698;23.298;2022-11-14T10:36:56;99.87;;;47.03;;
6342;SDS011;3204;42.698;23.298;2022-11-14T10:39:30;101.83;;;48.13;;
6342;SDS011;3204;42.698;23.298;2022-11-14T10:42:12;103.63;;;47.27;;
6342;SDS011;3204;42.698;23.298;2022-11-14T10:44:49;98.37;;;47.43;;
6342;SDS011;3204;42.698;23.298;2022-11-14T10:47:18;98.30;;;48.13;;
6342;SDS011;3204;42.698;23.298;2022-11-14T10:49:47;92.67;;;47.33;;
6342;SDS011;3204;42.698;23.298;2022-11-14T10:52:19;98.63;;;48.47;;
6342;SDS011;3204;42.698;23.298;2022-11-14T10:54:58;99.27;;;48.13;;
6342;SDS011;3204;42.698;23.298;2022-11-14T10:57:32;94.07;;;46.63;;
6342;SDS011;3204;42.698;23.298;2022-11-14T10:59:58;98.60;;;47.23;;
6342;SDS011;3204;42.698;23.298;2022-11-14T11:02:23;95.53;;;47.20;;
6342;SDS011;3204;42.698;23.298;2022-11-14T11:04:49;93.47;;;46.57;;
6342;SDS011;3204;42.698;23.298;2022-11-14T11:07:23;99.63;;;48.20;;
6342;SDS011;3204;42.698;23.298;2022-11-14T11:10:18;104.73;;;48.57;;
6342;SDS011;3204;42.698;23.298;2022-11-14T11:13:04;98.57;;;47.87;;
6342;SDS011;3204;42.698;23.298;2022-11-14T11:15:30;96.37;;;47.53;;
6342;SDS011;3204;42.698;23.298;2022-11-14T11:18:03;99.07;;;47.30;;
6342;SDS011;3204;42.698;23.298;2022-11-14T11:20:39;95.10;;;46.93;;
6342;SDS011;3204;42.698;23.298;2022-11-14T11:23:16;97.07;;;47.93;;
6342;SDS011;3204;42.698;23.298;2022-11-14T11:25:52;98.90;;;50.07;;
6342;SDS011;3204;42.698;23.298;2022-11-14T11:28:34;96.53;;;46.63;;
6342;SDS011;3204;42.698;23.298;2022-11-14T11:31:10;93.13;;;47.43;;
6342;SDS011;3204;42.698;23.298;2022-11-14T11:33:36;96.77;;;49.07;;
6342;SDS011;3204;42.698;23.298;2022-11-14T11:36:14;105.60;;;50.23;;
6342;SDS011;3204;42.698;23.298;2022-11-14T11:38:42;103.13;;;51.27;;
6342;SDS011;3204;42.698;23.298;2022-11-14T11:46:12;105.27;;;52.23;;
6342;SDS011;3204;42.698;23.298;2022-11-14T11:48:42;104.77;;;51.33;;
6342;SDS011;3204;42.698;23.298;2022-11-14T11:51:15;108.47;;;51.67;;
6342;SDS011;3204;42.698;23.298;2022-11-14T11:53:50;109.30;;;53.70;;
6342;SDS011;3204;42.698;23.298;2022-11-14T11:56:26;103.33;;;51.43;;
6342;SDS011;3204;42.698;23.298;2022-11-14T12:01:50;110.30;;;53.63;;
6342;SDS011;3204;42.698;23.298;2022-11-14T12:04:16;104.57;;;52.60;;
6342;SDS011;3204;42.698;23.298;2022-11-14T12:06:45;111.60;;;54.23;;
6342;SDS011;3204;42.698;23.298;2022-11-14T12:11:53;104.97;;;51.37;;
6342;SDS011;3204;42.698;23.298;2022-11-14T12:15:10;111.80;;;54.00;;
6342;SDS011;3204;42.698;23.298;2022-11-14T12:23:10;104.43;;;51.60;;
6342;SDS011;3204;42.698;23.298;2022-11-14T12:31:05;109.53;;;52.33;;
6342;SDS011;3204;42.698;23.298;2022-11-14T12:33:38;104.97;;;52.73;;
6342;SDS011;3204;42.698;23.298;2022-11-14T12:36:16;109.43;;;51.97;;
6342;SDS011;3204;42.698;23.298;2022-11-14T12:38:47;106.33;;;52.87;;
6342;SDS011;3204;42.698;23.298;2022-11-14T12:41:25;103.57;;;50.70;;
6342;SDS011;3204;42.698;23.298;2022-11-14T12:43:52;99.97;;;51.57;;
6342;SDS011;3204;42.698;23.298;2022-11-14T12:47:11;99.80;;;51.77;;
6342;SDS011;3204;42.698;23.298;2022-11-14T12:57:48;105.03;;;50.70;;
6342;SDS011;3204;42.698;23.298;2022-11-14T13:00:19;104.13;;;50.53;;
6342;SDS011;3204;42.698;23.298;2022-11-14T13:14:22;96.65;;;49.03;;
6342;SDS011;3204;42.698;23.298;2022-11-14T13:20:00;99.93;;;51.03;;
6342;SDS011;3204;42.698;23.298;2022-11-14T13:33:50;119.13;;;51.97;;
6342;SDS011;3204;42.698;23.298;2022-11-14T13:39:16;100.75;;;51.13;;
6342;SDS011;3204;42.698;23.298;2022-11-14T13:51:05;93.40;;;49.90;;
6342;SDS011;3204;42.698;23.298;2022-11-14T13:53:33;90.63;;;51.13;;
6342;SDS011;3204;42.698;23.298;2022-11-14T13:58:58;88.68;;;50.80;;
6342;SDS011;3204;42.698;23.298;2022-11-14T14:01:35;97.93;;;51.10;;
6342;SDS011;3204;42.698;23.298;2022-11-14T14:13:17;106.13;;;53.83;;
6342;SDS011;3204;42.698;23.298;2022-11-14T14:16:01;102.10;;;54.92;;
6342;SDS011;3204;42.698;23.298;2022-11-14T14:18:54;102.47;;;54.30;;
6342;SDS011;3204;42.698;23.298;2022-11-14T14:31:49;116.95;;;57.78;;
6342;SDS011;3204;42.698;23.298;2022-11-14T14:34:19;115.15;;;57.63;;
6342;SDS011;3204;42.698;23.298;2022-11-14T14:36:51;115.70;;;60.03;;
6342;SDS011;3204;42.698;23.298;2022-11-14T14:39:24;120.13;;;57.67;;
6342;SDS011;3204;42.698;23.298;2022-11-14T14:41:51;104.43;;;57.17;;
6342;SDS011;3204;42.698;23.298;2022-11-14T14:44:24;111.95;;;58.03;;
6342;SDS011;3204;42.698;23.298;2022-11-14T14:46:52;113.68;;;56.42;;
6342;SDS011;3204;42.698;23.298;2022-11-14T14:49:19;101.50;;;54.95;;
6342;SDS011;3204;42.698;23.298;2022-11-14T14:51:48;109.05;;;56.28;;
6342;SDS011;3204;42.698;23.298;2022-11-14T14:54:18;110.38;;;54.15;;
6342;SDS011;3204;42.698;23.298;2022-11-14T14:56:57;104.30;;;54.00;;
6342;SDS011;3204;42.698;23.298;2022-11-14T14:59:28;109.90;;;55.70;;
6342;SDS011;3204;42.698;23.298;2022-11-14T15:01:55;107.03;;;54.40;;
6342;SDS011;3204;42.698;23.298;2022-11-14T15:04:28;107.68;;;54.33;;
6342;SDS011;3204;42.698;23.298;2022-11-14T15:06:54;112.68;;;57.40;;
6342;SDS011;3204;42.698;23.298;2022-11-14T15:09:22;117.13;;;56.67;;
6342;SDS011;3204;42.698;23.298;2022-11-14T15:11:50;124.25;;;58.97;;
6342;SDS011;3204;42.698;23.298;2022-11-14T15:14:30;129.65;;;60.83;;
6342;SDS011;3204;42.698;23.298;2022-11-14T15:16:59;137.90;;;66.45;;
6342;SDS011;3204;42.698;23.298;2022-11-14T15:19:27;130.77;;;65.18;;
6342;SDS011;3204;42.698;23.298;2022-11-14T15:22:02;129.40;;;64.40;;
6342;SDS011;3204;42.698;23.298;2022-11-14T15:24:41;135.95;;;63.88;;
6342;SDS011;3204;42.698;23.298;2022-11-14T15:27:10;141.63;;;63.97;;
6342;SDS011;3204;42.698;23.298;2022-11-14T15:29:43;128.55;;;61.20;;
6342;SDS011;3204;42.698;23.298;2022-11-14T15:32:21;134.38;;;65.15;;
6342;SDS011;3204;42.698;23.298;2022-11-14T15:37:33;143.43;;;65.45;;
6342;SDS011;3204;42.698;23.298;2022-11-14T15:40:20;153.90;;;66.82;;
6342;SDS011;3204;42.698;23.298;2022-11-14T15:42:46;156.13;;;71.35;;
6342;SDS011;3204;42.698;23.298;2022-11-14T15:45:21;154.80;;;76.50;;
6342;SDS011;3204;42.698;23.298;2022-11-14T15:47:57;153.43;;;78.53;;
6342;SDS011;3204;42.698;23.298;2022-11-14T15:50:30;181.63;;;91.30;;
6342;SDS011;3204;42.698;23.298;2022-11-14T15:52:58;180.35;;;86.90;;
6342;SDS011;3204;42.698;23.298;2022-11-14T15:55:24;158.35;;;80.78;;
6342;SDS011;3204;42.698;23.298;2022-11-14T15:57:50;173.82;;;81.43;;
6342;SDS011;3204;42.698;23.298;2022-11-14T16:00:16;175.18;;;87.68;;
6342;SDS011;3204;42.698;23.298;2022-11-14T16:05:20;165.95;;;75.90;;
6342;SDS011;3204;42.698;23.298;2022-11-14T16:07:50;163.73;;;78.63;;
6342;SDS011;3204;42.698;23.298;2022-11-14T16:10:19;177.77;;;80.77;;
6342;SDS011;3204;42.698;23.298;2022-11-14T16:12:46;276.80;;;130.88;;
6342;SDS011;3204;42.698;23.298;2022-11-14T16:15:12;223.93;;;108.30;;
6342;SDS011;3204;42.698;23.298;2022-11-14T16:17:39;274.97;;;130.77;;
6342;SDS011;3204;42.698;23.298;2022-11-14T16:20:06;260.23;;;125.60;;
6342;SDS011;3204;42.698;23.298;2022-11-14T16:22:40;242.47;;;125.30;;
6342;SDS011;3204;42.698;23.298;2022-11-14T16:25:08;254.43;;;131.03;;
6342;SDS011;3204;42.698;23.298;2022-11-14T16:27:40;241.70;;;135.10;;
6342;SDS011;3204;42.698;23.298;2022-11-14T16:30:06;228.90;;;117.68;;
6342;SDS011;3204;42.698;23.298;2022-11-14T16:32:32;222.40;;;116.07;;
6342;SDS011;3204;42.698;23.298;2022-11-14T16:34:58;206.98;;;102.90;;
6342;SDS011;3204;42.698;23.298;2022-11-14T16:37:24;176.20;;;92.87;;
6342;SDS011;3204;42.698;23.298;2022-11-14T16:39:50;193.20;;;99.47;;
6342;SDS011;3204;42.698;23.298;2022-11-14T16:42:15;233.50;;;113.93;;
6342;SDS011;3204;42.698;23.298;2022-11-14T16:44:41;209.90;;;96.30;;
6342;SDS011;3204;42.698;23.298;2022-11-14T16:47:06;177.03;;;87.63;;
6342;SDS011;3204;42.698;23.298;2022-11-14T16:49:32;185.17;;;88.17;;
6342;SDS011;3204;42.698;23.298;2022-11-14T16:51:57;179.43;;;86.97;;
6342;SDS011;3204;42.698;23.298;2022-11-14T16:54:29;169.93;;;85.63;;
6342;SDS011;3204;42.698;23.298;2022-11-14T16:56:54;172.90;;;82.27;;